Argusville, North Dakota
Current Conditions -  °F | °C
As of 11:53 PM on Sunday 25 Jan 2015 (Local Time) from KFAR Reporting Station
Light Snow Light Snow  
Wind Chill: -9°   Ceiling: 7000
Heat Index: -2°   Visibility: 10mi
Dew Point: -4°   Wind: 21mph
Humidity: 82%   Direction: 190°S
Pressure: 29.77"   Gusts: NA
Location:  47.05°N, 96.93°W
Report Text: KFAR 260553Z 19018KT 10SM -SN FEW055 BKN070 OVC085 M02/M04 A2977 RMK AO2 SNB16E33B50 SLP095 P0000 60000 T10171044 11017 21033 410171072 58036
Loading
Personal Weather Stations






























Interactive Weather Map New forecast layout! Learn more

10-Day Weather Forecast

Advertisements
Track Severe Weather on mobile